createdAt,value
2019-01-24T00:00:01.438Z,96664.44
2019-01-24T00:02:33.450Z,96675.09
2019-01-24T00:05:05.982Z,96676.45
2019-01-24T00:07:38.056Z,96678.47
2019-01-24T00:10:10.262Z,96677.96
2019-01-24T00:12:42.314Z,96674.83
2019-01-24T00:15:14.395Z,96684.48
2019-01-24T00:17:46.351Z,96684.59
2019-01-24T00:20:18.390Z,96683.23
2019-01-24T00:22:50.391Z,96681.70
2019-01-24T00:25:22.383Z,96688.97
2019-01-24T00:27:54.373Z,96693.25
2019-01-24T00:30:26.365Z,96698.13
2019-01-24T00:32:58.391Z,96701.77
2019-01-24T00:35:30.523Z,96699.25
2019-01-24T00:38:02.532Z,96703.25
2019-01-24T00:40:34.529Z,96705.52
2019-01-24T00:43:06.520Z,96707.53
2019-01-24T00:45:38.526Z,96712.29
2019-01-24T00:48:10.610Z,96716.41
2019-01-24T00:50:42.609Z,96719.05
2019-01-24T00:53:14.574Z,96718.41
2019-01-24T00:55:46.591Z,96721.93
2019-01-24T00:58:18.583Z,96722.05
2019-01-24T01:00:50.603Z,96719.05
2019-01-24T01:03:22.693Z,96726.33
2019-01-24T01:05:54.722Z,96727.05
2019-01-24T01:08:26.714Z,96735.56
2019-01-24T01:11:00.501Z,96734.31
2019-01-24T01:13:32.490Z,96736.94
2019-01-24T01:16:04.673Z,96729.57
2019-01-24T01:18:36.643Z,96737.34
2019-01-24T01:21:08.667Z,96743.70
2019-01-24T01:23:40.635Z,96743.09
2019-01-24T01:26:12.638Z,96745.06
2019-01-24T01:28:44.603Z,96748.80
2019-01-24T01:31:16.585Z,96750.44
2019-01-24T01:33:48.546Z,96751.56
2019-01-24T01:36:20.564Z,96759.96
2019-01-24T01:38:54.855Z,96746.84
2019-01-24T01:41:28.076Z,96755.59
2019-01-24T01:44:00.036Z,96763.57
2019-01-24T01:46:32.022Z,96763.55
2019-01-24T01:49:04.194Z,96772.72
2019-01-24T01:51:36.231Z,96774.20
2019-01-24T01:54:08.197Z,96778.11
2019-01-24T01:56:40.212Z,96781.62
2019-01-24T01:59:12.179Z,96778.36
2019-01-24T02:01:44.203Z,96781.36
2019-01-24T02:04:16.169Z,96779.88
2019-01-24T02:06:48.208Z,96784.39
2019-01-24T02:09:20.167Z,96788.38
2019-01-24T02:11:52.190Z,96792.41
2019-01-24T02:14:24.148Z,96794.03
2019-01-24T02:16:57.955Z,96796.12
2019-01-24T02:19:29.952Z,96793.89
2019-01-24T02:22:02.017Z,96801.05
2019-01-24T02:24:34.007Z,96800.50
2019-01-24T02:27:05.966Z,96800.15
2019-01-24T02:29:37.960Z,96804.92
2019-01-24T02:32:09.937Z,96803.94
2019-01-24T02:34:42.018Z,96811.22
2019-01-24T02:37:17.022Z,96815.99
2019-01-24T02:39:49.014Z,96810.22
2019-01-24T02:42:20.977Z,96815.37
2019-01-24T02:44:53.025Z,96820.24
2019-01-24T02:47:24.961Z,96822.87
2019-01-24T02:49:56.975Z,96821.88
2019-01-24T02:52:28.937Z,96823.51
2019-01-24T02:55:00.916Z,96825.98
2019-01-24T02:57:32.877Z,96827.12
2019-01-24T03:00:07.925Z,96826.24
2019-01-24T03:02:39.878Z,96830.61
2019-01-24T03:05:13.912Z,96832.97
2019-01-24T03:07:45.887Z,96832.97
2019-01-24T03:10:17.900Z,96835.59
2019-01-24T03:12:50.244Z,96827.70
2019-01-24T03:15:22.247Z,96838.59
2019-01-24T03:17:54.231Z,96834.05
2019-01-24T03:20:26.212Z,96839.20
2019-01-24T03:22:59.372Z,96844.21
2019-01-24T03:25:31.786Z,96842.17
2019-01-24T03:28:03.887Z,96847.67
2019-01-24T03:30:35.832Z,96851.31
2019-01-24T03:33:07.822Z,96849.07
2019-01-24T03:35:39.908Z,96858.70
2019-01-24T03:38:11.874Z,96860.69
2019-01-24T03:40:43.865Z,96864.70
2019-01-24T03:43:15.990Z,96865.61
2019-01-24T03:45:47.995Z,96873.85
2019-01-24T03:48:19.952Z,96874.76
2019-01-24T03:50:51.965Z,96882.01
2019-01-24T03:53:23.933Z,96872.86
2019-01-24T03:55:56.207Z,96877.98
2019-01-24T03:58:28.203Z,96876.58
2019-01-24T04:01:00.158Z,96873.47
2019-01-24T04:03:32.167Z,96878.33
2019-01-24T04:06:04.131Z,96879.92
2019-01-24T04:08:36.176Z,96889.44
2019-01-24T04:11:08.124Z,96884.16
2019-01-24T04:13:40.114Z,96886.94
2019-01-24T04:16:12.076Z,96889.17
2019-01-24T04:18:44.078Z,96891.14
2019-01-24T04:21:16.028Z,96894.89
2019-01-24T04:23:48.001Z,96897.02
2019-01-24T04:26:19.969Z,96904.38
2019-01-24T04:28:51.975Z,96902.02
2019-01-24T04:31:23.951Z,96905.17
2019-01-24T04:33:55.943Z,96901.42
2019-01-24T04:36:27.895Z,96909.42
2019-01-24T04:38:59.881Z,96911.55
2019-01-24T04:41:31.862Z,96918.94
2019-01-24T04:44:04.474Z,96920.69
2019-01-24T04:46:36.440Z,96921.45
2019-01-24T04:49:08.784Z,96924.23
2019-01-24T04:51:40.820Z,96922.65
2019-01-24T04:54:12.879Z,96927.92
2019-01-24T04:56:44.837Z,96928.16
2019-01-24T04:59:16.822Z,96938.32
2019-01-24T05:01:48.821Z,96942.72
2019-01-24T05:04:20.823Z,96941.20
2019-01-24T05:06:52.899Z,96945.08
2019-01-24T05:09:24.935Z,96946.00
2019-01-24T05:11:56.890Z,96941.00
2019-01-24T05:14:28.881Z,96945.89
2019-01-24T05:17:00.829Z,96939.36
2019-01-24T05:19:32.831Z,96941.59
2019-01-24T05:22:04.923Z,96942.95
2019-01-24T05:24:36.908Z,96945.51
2019-01-24T05:27:09.454Z,96951.66
2019-01-24T05:29:42.533Z,96954.88
2019-01-24T05:32:14.765Z,96954.12
2019-01-24T05:34:46.733Z,96959.37
2019-01-24T05:37:18.721Z,96965.36
2019-01-24T05:39:50.690Z,96967.61
2019-01-24T05:42:22.705Z,96966.84
2019-01-24T05:44:54.664Z,96976.09
2019-01-24T05:47:26.670Z,96979.73
2019-01-24T05:49:58.644Z,96987.95
2019-01-24T05:52:30.656Z,96987.73
2019-01-24T05:55:03.136Z,96989.80
2019-01-24T05:57:35.142Z,96998.77
2019-01-24T06:00:09.818Z,96999.52
2019-01-24T06:02:41.853Z,97006.21
2019-01-24T06:05:13.957Z,97011.44
2019-01-24T06:07:45.969Z,97012.84
2019-01-24T06:10:17.922Z,97014.38
2019-01-24T06:12:49.965Z,97026.51
2019-01-24T06:15:21.900Z,97030.27
2019-01-24T06:17:53.895Z,97032.55
2019-01-24T06:20:25.868Z,97035.05
2019-01-24T06:22:57.853Z,97039.30
2019-01-24T06:25:29.843Z,97042.11
2019-01-24T06:28:03.595Z,97043.15
2019-01-24T06:30:35.574Z,97045.16
2019-01-24T06:33:07.561Z,97052.22
2019-01-24T06:35:39.522Z,97049.28
2019-01-24T06:38:11.516Z,97041.98
2019-01-24T06:40:43.471Z,97045.21
2019-01-24T06:43:15.454Z,97042.27
2019-01-24T06:45:47.411Z,97048.75
2019-01-24T06:48:19.495Z,97050.41
2019-01-24T06:50:51.457Z,97052.19
2019-01-24T06:53:23.445Z,97051.37
2019-01-24T06:55:55.427Z,97057.53
2019-01-24T06:58:27.468Z,97061.00
2019-01-24T07:00:59.440Z,97070.26
2019-01-24T07:03:31.441Z,97070.48
2019-01-24T07:06:03.411Z,97070.61
2019-01-24T07:08:35.463Z,97074.33
2019-01-24T07:11:07.420Z,97078.05
2019-01-24T07:13:39.387Z,97083.77
2019-01-24T07:16:11.475Z,97080.30
2019-01-24T07:18:43.470Z,97088.84
2019-01-24T07:21:15.463Z,97090.37
2019-01-24T07:23:47.471Z,97094.22
2019-01-24T07:26:19.483Z,97097.10
2019-01-24T07:28:51.480Z,97096.07
2019-01-24T07:31:25.551Z,97105.33
2019-01-24T07:33:57.503Z,97107.14
2019-01-24T07:36:29.509Z,97105.14
2019-01-24T07:39:01.512Z,97110.28
2019-01-24T07:41:33.534Z,97114.97
2019-01-24T07:44:05.621Z,97120.85
2019-01-24T07:46:37.595Z,97117.56
2019-01-24T07:49:09.576Z,97129.42
2019-01-24T07:51:41.591Z,97135.37
2019-01-24T07:54:13.578Z,97143.04
2019-01-24T07:56:45.572Z,97143.16
2019-01-24T07:59:17.549Z,97145.67
2019-01-24T08:01:49.545Z,97155.47
2019-01-24T08:04:21.500Z,97152.58
2019-01-24T08:06:53.487Z,97158.34
2019-01-24T08:09:25.486Z,97170.02
2019-01-24T08:11:57.469Z,97165.45
2019-01-24T08:14:29.432Z,97168.83
2019-01-24T08:17:01.413Z,97169.80
2019-01-24T08:19:33.396Z,97170.27
2019-01-24T08:22:05.416Z,97170.86
2019-01-24T08:24:37.401Z,97173.77
2019-01-24T08:27:09.746Z,97177.22
2019-01-24T08:29:41.706Z,97183.41
2019-01-24T08:32:13.699Z,97181.91
2019-01-24T08:34:45.727Z,97178.16
2019-01-24T08:37:18.595Z,97182.26
2019-01-24T08:39:50.537Z,97181.66
2019-01-24T08:42:22.550Z,97183.67
2019-01-24T08:44:54.518Z,97183.89
2019-01-24T08:47:26.510Z,97184.02
2019-01-24T08:49:58.518Z,97187.83
2019-01-24T08:52:30.511Z,97191.99
2019-01-24T08:55:03.846Z,97192.64
2019-01-24T08:57:35.807Z,97195.66
2019-01-24T09:00:10.422Z,97189.95
2019-01-24T09:02:42.411Z,97193.70
2019-01-24T09:05:14.489Z,97189.13
2019-01-24T09:07:46.716Z,97191.44
2019-01-24T09:10:20.928Z,97187.51
2019-01-24T09:12:53.002Z,97192.95
2019-01-24T09:15:25.281Z,97194.92
2019-01-24T09:17:57.265Z,97193.40
2019-01-24T09:20:29.303Z,97202.17
2019-01-24T09:23:01.286Z,97194.00
2019-01-24T09:25:33.350Z,97198.85
2019-01-24T09:28:14.580Z,97201.91
2019-01-24T09:30:42.306Z,97199.86
2019-01-24T09:33:16.606Z,97205.53
2019-01-24T09:35:48.785Z,97201.78
2019-01-24T09:38:20.781Z,97202.31
2019-01-24T09:40:52.810Z,97208.09
2019-01-24T09:43:24.851Z,97209.81
2019-01-24T09:45:56.905Z,97209.33
2019-01-24T09:48:28.876Z,97218.00
2019-01-24T09:51:00.957Z,97216.28
2019-01-24T09:53:32.931Z,97227.58
2019-01-24T09:56:04.949Z,97230.85
2019-01-24T09:58:36.923Z,97231.54
2019-01-24T10:01:08.967Z,97237.06
2019-01-24T10:03:40.936Z,97243.48
2019-01-24T10:06:12.928Z,97244.09
2019-01-24T10:08:44.939Z,97243.75
2019-01-24T10:11:23.295Z,97245.80
2019-01-24T10:13:50.843Z,97246.11
2019-01-24T10:16:22.859Z,97244.52
2019-01-24T10:18:54.830Z,97243.78
2019-01-24T10:21:26.877Z,97247.17
2019-01-24T10:23:58.867Z,97255.36
2019-01-24T10:26:30.893Z,97254.02
2019-01-24T10:29:02.984Z,97255.97
2019-01-24T10:31:34.998Z,97253.53
2019-01-24T10:34:07.130Z,97264.80
2019-01-24T10:36:43.000Z,97261.70
2019-01-24T10:39:13.067Z,97257.79
2019-01-24T10:41:47.840Z,97267.08
2019-01-24T10:44:19.828Z,97258.28
2019-01-24T10:46:52.594Z,97258.13
2019-01-24T10:49:24.708Z,97262.89
2019-01-24T10:51:56.713Z,97259.80
2019-01-24T10:54:28.822Z,97259.34
2019-01-24T10:57:00.866Z,97263.30
2019-01-24T10:59:32.956Z,97266.50
2019-01-24T11:02:04.959Z,97270.38
2019-01-24T11:04:36.974Z,97267.49
2019-01-24T11:07:11.324Z,97268.48
2019-01-24T11:09:43.386Z,97269.05
2019-01-24T11:12:15.365Z,97267.72
2019-01-24T11:14:47.416Z,97267.33
2019-01-24T11:17:19.424Z,97274.33
2019-01-24T11:19:52.015Z,97277.34
2019-01-24T11:22:23.938Z,97270.59
2019-01-24T11:24:55.959Z,97279.77
2019-01-24T11:27:27.962Z,97280.81
2019-01-24T11:30:00.019Z,97280.39
2019-01-24T11:32:32.049Z,97277.46
2019-01-24T11:35:06.225Z,97269.62
2019-01-24T11:37:38.229Z,97269.77
2019-01-24T11:40:12.321Z,97270.98
2019-01-24T11:42:44.714Z,97275.59
2019-01-24T11:45:17.800Z,97277.42
2019-01-24T11:47:49.779Z,97281.50
2019-01-24T11:50:21.791Z,97279.33
2019-01-24T11:52:53.765Z,97282.33
2019-01-24T11:55:25.777Z,97275.52
2019-01-24T11:57:57.766Z,97273.50
2019-01-24T12:00:34.091Z,97272.94
2019-01-24T12:03:06.179Z,97272.66
2019-01-24T12:08:22.256Z,97282.29
2019-01-24T12:10:54.281Z,97275.59
2019-01-24T12:13:26.314Z,97274.11
2019-01-24T12:15:58.349Z,97276.89
2019-01-24T12:18:30.436Z,97270.65
2019-01-24T12:21:02.490Z,97273.05
2019-01-24T12:23:34.459Z,97278.22
2019-01-24T12:26:06.529Z,97286.59
2019-01-24T12:28:38.525Z,97280.89
2019-01-24T12:31:10.559Z,97277.01
2019-01-24T12:33:42.564Z,97277.61
2019-01-24T12:36:14.608Z,97278.00
2019-01-24T12:38:46.640Z,97278.19
2019-01-24T12:41:18.679Z,97283.77
2019-01-24T12:43:50.649Z,97279.78
2019-01-24T12:46:22.616Z,97282.67
2019-01-24T12:48:54.661Z,97293.17
2019-01-24T12:51:26.645Z,97288.00
2019-01-24T12:53:58.668Z,97288.61
2019-01-24T12:56:30.671Z,97291.66
2019-01-24T12:59:02.676Z,97292.57
2019-01-24T13:01:37.492Z,97294.55
2019-01-24T13:04:09.512Z,97299.23
2019-01-24T13:06:41.525Z,97300.47
2019-01-24T13:09:13.632Z,97305.17
2019-01-24T13:11:45.608Z,97296.16
2019-01-24T13:14:17.627Z,97299.72
2019-01-24T13:16:49.641Z,97296.41
2019-01-24T13:19:21.651Z,97298.97
2019-01-24T13:22:34.444Z,97303.86
2019-01-24T13:25:09.691Z,97308.45
2019-01-24T13:27:41.695Z,97306.77
2019-01-24T13:30:55.996Z,97306.38
2019-01-24T13:33:28.038Z,97306.92
2019-01-24T13:36:00.012Z,97313.42
2019-01-24T13:38:32.040Z,97308.63
2019-01-24T13:41:04.029Z,97311.00
2019-01-24T13:43:36.065Z,97307.24
2019-01-24T13:46:08.018Z,97305.92
2019-01-24T13:48:40.063Z,97308.00
2019-01-24T13:51:12.062Z,97312.38
2019-01-24T13:53:44.112Z,97313.57
2019-01-24T13:56:16.145Z,97316.08
2019-01-24T13:58:48.157Z,97313.23
2019-01-24T14:01:20.150Z,97314.86
2019-01-24T14:04:13.603Z,97313.84
2019-01-24T14:06:45.593Z,97326.02
2019-01-24T14:09:17.616Z,97333.00
2019-01-24T14:11:49.723Z,97330.05
2019-01-24T14:14:21.781Z,97332.06
2019-01-24T14:16:53.786Z,97332.74
2019-01-24T14:19:25.790Z,97332.56
2019-01-24T14:21:57.832Z,97331.36
2019-01-24T14:24:29.822Z,97338.69
2019-01-24T14:27:01.906Z,97342.38
2019-01-24T14:29:33.924Z,97349.66
2019-01-24T14:32:05.962Z,97349.71
2019-01-24T14:34:39.561Z,97360.12
2019-01-24T14:37:11.784Z,97363.45
2019-01-24T14:39:43.804Z,97374.31
2019-01-24T14:42:15.841Z,97382.23
2019-01-24T14:44:47.830Z,97395.50
2019-01-24T14:47:19.853Z,97393.64
2019-01-24T14:49:54.612Z,97403.08
2019-01-24T14:52:26.614Z,97398.11
2019-01-24T14:54:58.648Z,97398.98
2019-01-24T14:57:30.675Z,97396.70
2019-01-24T15:00:04.428Z,97402.70
2019-01-24T15:02:36.484Z,97403.95
2019-01-24T15:05:08.872Z,97403.19
2019-01-24T15:07:46.946Z,97410.77
2019-01-24T15:10:14.927Z,97409.28
2019-01-24T15:12:46.960Z,97405.56
2019-01-24T15:15:19.237Z,97407.35
2019-01-24T15:17:51.652Z,97400.86
2019-01-24T15:20:23.632Z,97407.69
2019-01-24T15:22:55.674Z,97411.68
2019-01-24T15:25:27.676Z,97413.05
2019-01-24T15:27:59.685Z,97406.94
2019-01-24T15:30:31.688Z,97409.50
2019-01-24T15:33:03.749Z,97415.88
2019-01-24T15:35:35.765Z,97420.73
2019-01-24T15:38:07.839Z,97415.72
2019-01-24T15:40:39.852Z,97424.19
2019-01-24T15:43:11.894Z,97420.89
2019-01-24T15:45:43.932Z,97422.16
2019-01-24T15:48:15.959Z,97414.74
2019-01-24T15:50:48.292Z,97414.56
2019-01-24T15:53:20.295Z,97424.23
2019-01-24T15:55:52.326Z,97418.14
2019-01-24T15:58:24.331Z,97428.81
2019-01-24T16:00:56.320Z,97437.38
2019-01-24T16:03:28.291Z,97437.69
2019-01-24T16:06:00.328Z,97437.41
2019-01-24T16:08:32.360Z,97448.41
2019-01-24T16:11:04.632Z,97448.35
2019-01-24T16:13:38.712Z,97452.70
2019-01-24T16:16:10.742Z,97453.93
2019-01-24T16:18:42.726Z,97456.63
2019-01-24T16:21:14.792Z,97458.31
2019-01-24T16:23:46.840Z,97458.03
2019-01-24T16:26:18.904Z,97465.22
2019-01-24T16:28:50.909Z,97462.05
2019-01-24T16:31:22.962Z,97467.06
2019-01-24T16:33:54.960Z,97472.77
2019-01-24T16:36:27.041Z,97479.25
2019-01-24T16:38:59.066Z,97475.48
2019-01-24T16:41:31.082Z,97483.02
2019-01-24T16:44:03.140Z,97488.24
2019-01-24T16:46:35.192Z,97501.28
2019-01-24T16:49:07.185Z,97502.98
2019-01-24T16:51:39.267Z,97497.59
2019-01-24T16:54:11.283Z,97503.15
2019-01-24T16:56:45.130Z,97500.39
2019-01-24T16:59:17.138Z,97508.81
2019-01-24T17:01:49.196Z,97508.02
2019-01-24T17:04:21.222Z,97511.49
2019-01-24T17:06:53.385Z,97514.97
2019-01-24T17:09:25.458Z,97517.97
2019-01-24T17:11:57.496Z,97514.00
2019-01-24T17:14:29.511Z,97521.97
2019-01-24T17:17:01.562Z,97527.04
2019-01-24T17:19:33.616Z,97529.84
2019-01-24T17:22:05.812Z,97531.05
2019-01-24T17:24:37.811Z,97528.84
2019-01-24T17:27:09.901Z,97534.52
2019-01-24T17:29:41.924Z,97538.58
2019-01-24T17:32:13.990Z,97543.43
2019-01-24T17:34:45.990Z,97551.41
2019-01-24T17:37:18.056Z,97551.45
2019-01-24T17:39:50.182Z,97557.14
2019-01-24T17:42:22.236Z,97560.10
2019-01-24T17:44:54.274Z,97564.58
2019-01-24T17:47:26.756Z,97557.67
2019-01-24T17:49:58.805Z,97562.73
2019-01-24T17:52:30.847Z,97570.34
2019-01-24T17:55:03.982Z,97570.84
2019-01-24T17:57:35.986Z,97578.73
2019-01-24T18:00:12.861Z,97575.81
2019-01-24T18:02:44.910Z,97584.72
2019-01-24T18:05:17.113Z,97583.84
2019-01-24T18:07:49.172Z,97587.67
2019-01-24T18:10:22.863Z,97590.90
2019-01-24T18:12:54.900Z,97597.12
2019-01-24T18:15:28.455Z,97585.26
2019-01-24T18:18:00.684Z,97592.83
2019-01-24T18:20:32.921Z,97598.96
2019-01-24T18:23:05.794Z,97602.19
2019-01-24T18:25:37.971Z,97605.06
2019-01-24T18:28:11.450Z,97610.91
2019-01-24T18:30:43.586Z,97611.20
2019-01-24T18:33:15.627Z,97610.16
2019-01-24T18:35:49.193Z,97609.97
2019-01-24T18:38:21.264Z,97608.72
2019-01-24T18:40:53.407Z,97610.72
2019-01-24T18:43:26.424Z,97609.97
2019-01-24T18:45:59.946Z,97611.90
2019-01-24T18:48:32.034Z,97612.94
2019-01-24T18:51:04.165Z,97619.51
2019-01-24T18:53:36.748Z,97618.26
2019-01-24T18:56:08.875Z,97623.84
2019-01-24T18:58:40.874Z,97628.50
2019-01-24T19:01:13.052Z,97633.76
2019-01-24T19:03:45.095Z,97635.14
2019-01-24T19:06:17.557Z,97642.16
2019-01-24T19:08:52.914Z,97639.73
2019-01-24T19:11:25.024Z,97636.48
2019-01-24T19:13:58.413Z,97646.13
2019-01-24T19:16:30.549Z,97645.99
2019-01-24T19:19:02.641Z,97642.53
2019-01-24T19:21:34.756Z,97638.77
2019-01-24T19:24:06.787Z,97644.80
2019-01-24T19:26:38.902Z,97645.45
2019-01-24T19:29:11.050Z,97640.03
2019-01-24T19:31:43.200Z,97646.80
2019-01-24T19:34:15.237Z,97648.05
2019-01-24T19:36:47.403Z,97651.96
2019-01-24T19:39:19.430Z,97650.70
2019-01-24T19:41:51.663Z,97656.23
2019-01-24T19:44:23.739Z,97656.06
2019-01-24T19:46:56.824Z,97658.64
2019-01-24T19:49:28.882Z,97662.41
2019-01-24T19:52:01.033Z,97663.15
2019-01-24T19:54:33.188Z,97664.10
2019-01-24T19:57:05.393Z,97665.88
2019-01-24T19:59:37.551Z,97669.11
2019-01-24T20:02:29.744Z,97669.25
2019-01-24T20:05:03.517Z,97668.53
2019-01-24T20:07:35.614Z,97674.50
2019-01-24T20:10:10.534Z,97679.55
2019-01-24T20:12:42.642Z,97677.86
2019-01-24T20:15:18.476Z,97680.59
2019-01-24T20:17:50.568Z,97687.81
2019-01-24T20:20:24.591Z,97679.41
2019-01-24T20:22:56.688Z,97688.11
2019-01-24T20:25:30.015Z,97689.95
2019-01-24T20:28:02.017Z,97690.15
2019-01-24T20:31:14.869Z,97689.84
2019-01-24T20:33:46.910Z,97696.41
2019-01-24T20:36:19.053Z,97702.68
2019-01-24T20:38:51.114Z,97695.30
2019-01-24T20:41:23.221Z,97705.16
2019-01-24T20:43:55.255Z,97709.66
2019-01-24T20:46:27.310Z,97712.91
2019-01-24T20:48:59.363Z,97718.59
2019-01-24T20:51:31.567Z,97717.68
2019-01-24T20:54:03.794Z,97721.67
2019-01-24T20:56:35.941Z,97729.33
2019-01-24T20:59:07.999Z,97731.90
2019-01-24T21:01:40.069Z,97729.46
2019-01-24T21:04:12.222Z,97732.84
2019-01-24T21:06:44.408Z,97737.24
2019-01-24T21:09:28.828Z,97741.20
2019-01-24T21:14:39.081Z,97741.68
2019-01-24T21:17:30.673Z,97740.45
2019-01-24T21:20:43.492Z,97744.76
2019-01-24T21:23:15.598Z,97744.32
2019-01-24T21:25:47.611Z,97745.88
2019-01-24T21:28:19.653Z,97746.77
2019-01-24T21:30:51.731Z,97746.19
2019-01-24T21:33:23.765Z,97751.44
2019-01-24T21:35:55.840Z,97751.20
2019-01-24T21:38:27.953Z,97750.63
2019-01-24T21:41:00.249Z,97750.52
2019-01-24T21:43:32.376Z,97751.06
2019-01-24T21:46:04.397Z,97747.55
2019-01-24T21:48:37.094Z,97753.72
2019-01-24T21:51:11.254Z,97756.80
2019-01-24T21:53:43.071Z,97763.09
2019-01-24T21:56:16.291Z,97758.14
2019-01-24T21:58:48.305Z,97759.77
2019-01-24T22:01:20.370Z,97754.25
2019-01-24T22:03:52.479Z,97764.27
2019-01-24T22:06:24.493Z,97767.20
2019-01-24T22:08:56.565Z,97768.66
2019-01-24T22:11:28.597Z,97765.77
2019-01-24T22:14:01.218Z,97766.99
2019-01-24T22:16:33.211Z,97760.80
2019-01-24T22:19:05.216Z,97763.00
2019-01-24T22:21:37.241Z,97760.36
2019-01-24T22:24:09.277Z,97761.61
2019-01-24T22:26:41.304Z,97767.61
2019-01-24T22:29:13.352Z,97769.31
2019-01-24T22:31:45.354Z,97764.67
2019-01-24T22:34:17.912Z,97770.73
2019-01-24T22:36:49.880Z,97772.67
2019-01-24T22:39:21.878Z,97764.41
2019-01-24T22:41:53.904Z,97768.54
2019-01-24T22:44:25.917Z,97764.41
2019-01-24T22:46:57.905Z,97766.65
2019-01-24T22:49:29.900Z,97763.33
2019-01-24T22:52:01.960Z,97761.53
2019-01-24T22:54:33.934Z,97759.87
2019-01-24T22:57:05.923Z,97764.01
2019-01-24T22:59:37.899Z,97759.57
2019-01-24T23:02:14.935Z,97758.95
2019-01-24T23:04:46.934Z,97754.83
2019-01-24T23:07:18.954Z,97756.95
2019-01-24T23:09:50.964Z,97760.41
2019-01-24T23:12:22.988Z,97763.59
2019-01-24T23:14:54.974Z,97765.55
2019-01-24T23:17:26.996Z,97754.14
2019-01-24T23:19:58.982Z,97753.50
2019-01-24T23:22:30.971Z,97756.52
2019-01-24T23:25:04.019Z,97759.26
2019-01-24T23:27:36.183Z,97764.41
2019-01-24T23:30:08.272Z,97768.54
2019-01-24T23:32:40.324Z,97761.97
2019-01-24T23:35:12.401Z,97762.54
2019-01-24T23:37:44.413Z,97763.05
2019-01-24T23:40:16.395Z,97769.58
2019-01-24T23:42:48.393Z,97765.81
2019-01-24T23:45:20.377Z,97773.33
2019-01-24T23:47:52.374Z,97772.25
2019-01-24T23:50:24.350Z,97773.64
2019-01-24T23:52:56.332Z,97773.81
2019-01-24T23:55:28.316Z,97766.88
2019-01-24T23:58:00.323Z,97777.63
